SGAS/ASU METAR and TAF weather

Enter ICAO airport designator
Station Type Date Time Source
SGAS METAR 2017/02/19 23:00 UTC NOAA

SGAS 192300Z 21008KT 160V240 9999 VCTS SCT033 FEW040CB BKN200 28/23 Q1012


Station Type Date Time Source
SGAS Decoded METAR 2017/02/19 23:00 UTC NOAA

Asuncion / Aeropuerto, Paraguay (SGAS) 25-16S 057-38W 101M
Feb 19, 2017 - 06:00 PM EST / 2017.02.19 2300 UTC
Wind: from the SSW (210 degrees) at 9 MPH (8 KT) (direction variable):0
Visibility: greater than 7 mile(s):0
Sky conditions: mostly cloudy
Weather: thunder in the vicinity; Cumulonimbus clouds observed
Temperature: 82 F (28 C)
Dew Point: 73 F (23 C)
Relative Humidity: 74%
Pressure (altimeter): 29.88 in. Hg (1012 hPa)
ob: SGAS 192300Z 21008KT 160V240 9999 VCTS SCT033 FEW040CB BKN200 28/23 Q1012
cycle: 23

Station Type Date Time Source
SGAS TAF 2017/02/19 18:56 UTC NOAA

TAF SGAS 191505Z 1918/2018 36007KT 290V050 CAVOK TX36/1919Z TN26/2009Z PROB30 1919/1922 04008KT 8000 TSRA BKN027 FEW040CB
BECMG 1923/2001 03011KT 9999 BKN027 FEW040TCU
BECMG 2003/2004 02006KT 8000 NSC
BECMG 2005/2007 07006KT CAVOK


Example: see airport list